Time;durP1;ratioP1;P1;durP2;ratioP2;P2;SDS_P1;SDS_P2;PMS_P1;PMS_P2;Temp;Humidity;BMP_temperature;BMP_pressure;BME280_temperature;BME280_humidity;BME280_pressure;Samples;Min_cycle;Max_cycle;Signal;HPM_P1;HPM_P2
2022/04/18 00:01:38;;;;;;;6.10;5.53;;;23.70;47.70;;;;;;5036929;28;20443;-86
2022/04/18 00:04:06;;;;;;;6.23;5.63;;;23.70;47.60;;;;;;5036845;28;20435;-86
2022/04/18 00:06:35;;;;;;;6.30;5.70;;;23.70;47.60;;;;;;5036627;28;20996;-86
2022/04/18 00:09:02;;;;;;;6.40;5.80;;;23.70;47.70;;;;;;5038817;28;20470;-86
2022/04/18 00:11:29;;;;;;;6.17;5.67;;;23.70;47.80;;;;;;5036599;28;20443;-86
2022/04/18 00:13:56;;;;;;;6.77;6.17;;;23.70;47.80;;;;;;5036568;28;20443;-86
2022/04/18 00:16:24;;;;;;;6.20;5.23;;;23.70;47.60;;;;;;5018923;28;20470;-86
2022/04/18 00:18:52;;;;;;;6.57;6.07;;;23.70;47.70;;;;;;5036335;28;20430;-86
2022/04/18 00:21:19;;;;;;;6.13;5.23;;;23.70;47.80;;;;;;5018717;28;20439;-86
2022/04/18 00:23:46;;;;;;;6.23;5.63;;;23.70;47.80;;;;;;5036369;28;20434;-86
2022/04/18 00:26:14;;;;;;;6.23;4.93;;;23.70;47.90;;;;;;5036276;28;20562;-87
2022/04/18 00:28:41;;;;;;;6.03;5.43;;;23.70;47.80;;;;;;5035983;28;20949;-86
2022/04/18 00:31:08;;;;;;;5.90;5.40;;;23.70;47.90;;;;;;5036100;28;20451;-87
2022/04/18 00:33:36;;;;;;;6.20;5.60;;;23.70;48.00;;;;;;5036147;28;20444;-87
2022/04/18 00:36:03;;;;;;;6.23;5.73;;;23.70;47.90;;;;;;5036040;28;20447;-86
2022/04/18 00:38:30;;;;;;;5.10;4.70;;;23.70;47.90;;;;;;5035675;28;20462;-86
2022/04/18 00:40:57;;;;;;;5.93;5.43;;;23.70;48.00;;;;;;5035951;28;20807;-87
2022/04/18 00:43:39;;;;;;;5.40;4.90;;;23.70;47.80;;;;;;5036038;28;20773;-86
2022/04/18 00:46:06;;;;;;;6.00;5.50;;;23.70;47.90;;;;;;5035806;28;20482;-86
2022/04/18 00:48:33;;;;;;;5.73;5.13;;;23.70;47.80;;;;;;5035805;28;20443;-86
2022/04/18 00:51:01;;;;;;;7.00;6.40;;;23.70;47.80;;;;;;5035659;28;20949;-87
2022/04/18 00:53:28;;;;;;;5.80;5.30;;;23.70;47.90;;;;;;5017356;28;20435;-86
2022/04/18 00:55:56;;;;;;;6.77;5.63;;;23.70;47.90;;;;;;5035793;28;20945;-87
2022/04/18 00:58:23;;;;;;;6.10;5.53;;;23.70;48.20;;;;;;5015736;28;20815;-86
2022/04/18 01:00:50;;;;;;;5.40;5.00;;;23.70;48.20;;;;;;5015979;28;20443;-87
2022/04/18 01:03:16;;;;;;;6.10;5.50;;;23.70;48.20;;;;;;5015694;28;20452;-87
2022/04/18 01:05:44;;;;;;;5.83;5.23;;;23.70;48.10;;;;;;5015459;28;20479;-88
2022/04/18 01:08:12;;;;;;;5.40;4.90;;;23.60;48.00;;;;;;4998235;28;20487;-87
2022/04/18 01:10:40;;;;;;;6.67;6.17;;;23.70;48.10;;;;;;5015523;28;20946;-87
2022/04/18 01:13:06;;;;;;;6.00;5.50;;;23.70;48.10;;;;;;5015467;28;20458;-87
2022/04/18 01:15:33;;;;;;;6.50;5.90;;;23.70;48.20;;;;;;5015638;28;20954;-88
2022/04/18 01:18:00;;;;;;;5.87;5.37;;;23.60;48.10;;;;;;5015291;28;20443;-88
2022/04/18 01:20:34;;;;;;;6.27;5.67;;;23.60;48.20;;;;;;5015394;28;20481;-87
2022/04/18 01:23:05;;;;;;;6.77;6.03;;;23.70;48.30;;;;;;5015306;28;20440;-88
2022/04/18 01:31:00;;;;;;;5.67;5.17;;;23.60;48.10;;;;;;5015357;28;20495;-87
2022/04/18 01:33:27;;;;;;;5.83;5.33;;;23.60;48.20;;;;;;5015277;28;20451;-88
2022/04/18 01:35:54;;;;;;;6.43;5.87;;;23.60;48.10;;;;;;5015025;28;20458;-87
2022/04/18 01:38:22;;;;;;;7.03;6.43;;;23.60;48.20;;;;;;5014893;28;20471;-87
2022/04/18 01:40:49;;;;;;;6.93;6.23;;;23.60;48.30;;;;;;5015012;28;20526;-87
2022/04/18 01:43:15;;;;;;;7.00;6.40;;;23.60;48.20;;;;;;5014929;28;20551;-87
2022/04/18 01:45:42;;;;;;;7.73;6.90;;;23.60;48.10;;;;;;5014800;28;20451;-88
2022/04/18 01:48:10;;;;;;;6.70;6.10;;;23.60;48.20;;;;;;5014917;28;20439;-87
2022/04/18 01:50:36;;;;;;;6.40;5.80;;;23.60;48.10;;;;;;5014846;28;20806;-87
2022/04/18 01:53:04;;;;;;;8.70;7.90;;;23.60;48.10;;;;;;5014747;28;20444;-87
2022/04/18 01:55:32;;;;;;;6.70;6.10;;;23.60;47.90;;;;;;5014829;28;20809;-87
2022/04/18 01:57:59;;;;;;;6.23;5.63;;;23.60;48.20;;;;;;5031402;28;20475;-88
2022/04/18 02:00:26;;;;;;;7.47;6.77;;;23.60;48.20;;;;;;5034515;28;20482;-86
2022/04/18 02:02:53;;;;;;;7.13;6.27;;;23.60;48.20;;;;;;5034721;28;20441;-86
2022/04/18 02:05:20;;;;;;;7.63;6.87;;;23.60;48.20;;;;;;5033696;28;20453;-86
2022/04/18 02:07:47;;;;;;;6.97;6.37;;;23.60;48.20;;;;;;5034534;28;20483;-86
2022/04/18 02:10:14;;;;;;;7.40;6.70;;;23.60;48.30;;;;;;5034378;28;20443;-86
2022/04/18 02:12:42;;;;;;;7.40;6.70;;;23.60;48.20;;;;;;5016937;28;20518;-86
2022/04/18 02:15:10;;;;;;;7.80;6.27;;;23.60;48.20;;;;;;5034474;28;20533;-86
2022/04/18 02:17:37;;;;;;;7.37;6.67;;;23.60;48.30;;;;;;5034258;28;20790;-86
2022/04/18 02:23:26;;;;;;;6.57;5.97;;;23.60;48.20;;;;;;5035545;28;20831;-86
2022/04/18 02:25:53;;;;;;;6.20;5.70;;;23.50;48.30;;;;;;5036701;28;20442;-86
2022/04/18 02:28:21;;;;;;;7.17;6.47;;;23.50;48.30;;;;;;5019657;28;20449;-86
2022/04/18 02:30:48;;;;;;;7.73;6.93;;;23.60;48.30;;;;;;5034826;28;20446;-86
2022/04/18 02:33:15;;;;;;;8.87;7.83;;;23.60;48.30;;;;;;5034924;28;20447;-86
2022/04/18 02:35:42;;;;;;;7.03;6.50;;;23.60;48.20;;;;;;5034330;28;20926;-86
2022/04/18 02:38:08;;;;;;;8.73;7.57;;;23.60;48.20;;;;;;5016465;28;20477;-86
2022/04/18 02:40:35;;;;;;;7.00;5.97;;;23.50;48.20;;;;;;5034119;28;20679;-87
2022/04/18 02:43:02;;;;;;;7.20;6.50;;;23.50;48.20;;;;;;5034160;28;20435;-87
2022/04/18 02:45:31;;;;;;;8.93;7.20;;;23.50;48.20;;;;;;5034170;28;20493;-87
2022/04/18 02:47:58;;;;;;;7.90;7.10;;;23.60;48.20;;;;;;5033692;28;20485;-87
2022/04/18 02:50:25;;;;;;;10.17;8.17;;;23.50;48.70;;;;;;5033794;28;20443;-87
2022/04/18 02:52:52;;;;;;;8.60;7.80;;;23.50;48.20;;;;;;5033785;28;20439;-87
2022/04/18 02:55:19;;;;;;;7.20;6.60;;;23.50;48.10;;;;;;4999730;28;20443;-87
2022/04/18 02:57:45;;;;;;;7.70;7.00;;;23.50;48.10;;;;;;5034138;28;20471;-87
2022/04/18 03:00:13;;;;;;;8.50;7.60;;;23.50;48.10;;;;;;5033685;28;20439;-87
2022/04/18 03:02:41;;;;;;;7.43;6.70;;;23.50;48.10;;;;;;5033701;28;20474;-87
2022/04/18 03:05:10;;;;;;;8.40;7.70;;;23.50;48.10;;;;;;5051365;28;20434;-87
2022/04/18 03:07:37;;;;;;;8.00;7.20;;;23.50;48.00;;;;;;5053337;28;20489;-87
2022/04/18 03:10:06;;;;;;;8.37;7.57;;;23.50;48.10;;;;;;5053397;28;20462;-87
2022/04/18 03:12:33;;;;;;;8.43;7.63;;;23.50;48.00;;;;;;5053368;28;20445;-87
2022/04/18 03:15:00;;;;;;;7.63;6.93;;;23.50;48.10;;;;;;5035415;28;20464;-87
2022/04/18 03:17:26;;;;;;;7.33;6.73;;;23.60;48.20;;;;;;5053518;28;20441;-87
2022/04/18 03:19:54;;;;;;;8.40;7.60;;;23.50;48.10;;;;;;5053625;28;20450;-87
2022/04/18 03:22:21;;;;;;;8.27;7.47;;;23.50;48.00;;;;;;5035210;28;20441;-87
2022/04/18 03:24:48;;;;;;;9.70;8.33;;;23.60;48.00;;;;;;5053482;28;20448;-87
2022/04/18 03:27:15;;;;;;;9.30;7.90;;;23.50;48.00;;;;;;5053367;28;20492;-87
2022/04/18 03:29:42;;;;;;;8.70;7.80;;;23.50;48.10;;;;;;5053343;28;20438;-87
2022/04/18 03:32:09;;;;;;;9.07;8.17;;;23.50;48.00;;;;;;5053492;28;20441;-87
2022/04/18 03:34:37;;;;;;;8.33;7.53;;;23.50;48.00;;;;;;5035902;28;20449;-87
2022/04/18 03:39:54;;;;;;;8.67;7.87;;;23.50;48.00;;;;;;5053462;28;20441;-87
2022/04/18 03:42:29;;;;;;;7.53;6.83;;;23.50;48.10;;;;;;5053284;28;20454;-87
2022/04/18 03:44:58;;;;;;;9.77;8.83;;;23.50;48.00;;;;;;5053541;28;20441;-87
2022/04/18 03:47:25;;;;;;;8.43;7.73;;;23.50;48.00;;;;;;5053215;28;20508;-87
2022/04/18 03:49:52;;;;;;;9.30;8.40;;;23.50;48.00;;;;;;5052932;28;20499;-87
2022/04/18 03:52:21;;;;;;;10.50;8.73;;;23.50;47.90;;;;;;5052778;28;20452;-87
2022/04/18 03:54:47;;;;;;;8.80;7.60;;;23.50;47.90;;;;;;5053273;28;20767;-88
2022/04/18 03:57:14;;;;;;;9.43;8.23;;;23.50;47.90;;;;;;5052893;28;20477;-87
2022/04/18 03:59:41;;;;;;;8.27;7.57;;;23.50;47.90;;;;;;5053197;28;20925;-87
2022/04/18 04:02:08;;;;;;;8.57;7.27;;;23.50;47.80;;;;;;5053156;28;20448;-87
2022/04/18 04:04:36;;;;;;;8.93;7.17;;;23.50;47.80;;;;;;5053364;28;20458;-87
2022/04/18 04:07:03;;;;;;;8.33;7.53;;;23.40;47.80;;;;;;5053116;28;20473;-87
2022/04/18 04:09:31;;;;;;;7.90;7.20;;;23.50;47.80;;;;;;5052989;28;20461;-87
2022/04/18 04:11:58;;;;;;;8.93;8.00;;;23.50;47.80;;;;;;5053378;28;20434;-87
2022/04/18 04:14:24;;;;;;;8.10;7.30;;;23.50;47.90;;;;;;5053128;28;20442;-87
2022/04/18 04:16:51;;;;;;;9.00;8.10;;;23.40;47.80;;;;;;5053369;28;20453;-87
2022/04/18 04:19:18;;;;;;;8.23;7.43;;;23.50;47.60;;;;;;5055667;28;20450;-87
2022/04/18 04:21:45;;;;;;;7.67;7.03;;;23.50;47.80;;;;;;5057339;28;20449;-87
2022/04/18 04:24:12;;;;;;;8.27;7.40;;;23.40;47.70;;;;;;5057343;28;20446;-87
2022/04/18 04:26:40;;;;;;;8.37;7.57;;;23.50;47.70;;;;;;5038787;28;20920;-87
2022/04/18 04:29:07;;;;;;;8.93;7.20;;;23.50;47.70;;;;;;5059099;28;20824;-87
2022/04/18 04:31:34;;;;;;;8.90;8.00;;;23.40;47.80;;;;;;5039670;28;20805;-87
2022/04/18 04:34:00;;;;;;;9.80;7.70;;;23.40;47.70;;;;;;5056498;28;20438;-87
2022/04/18 04:36:27;;;;;;;9.30;8.30;;;23.40;47.50;;;;;;5056392;28;20449;-87
2022/04/18 04:38:54;;;;;;;9.33;8.23;;;23.40;47.60;;;;;;5056147;28;20465;-87
2022/04/18 04:41:21;;;;;;;9.70;8.83;;;23.40;47.70;;;;;;5038587;28;20449;-87
2022/04/18 04:43:49;;;;;;;8.73;7.60;;;23.40;47.60;;;;;;5056218;28;20785;-87
2022/04/18 04:46:15;;;;;;;8.80;7.10;;;23.40;47.60;;;;;;5056149;28;20932;-87
2022/04/18 04:48:42;;;;;;;8.30;7.50;;;23.40;47.60;;;;;;5056120;28;20999;-87
2022/04/18 04:51:09;;;;;;;9.60;8.20;;;23.40;47.60;;;;;;5056417;28;20457;-87
2022/04/18 04:53:36;;;;;;;9.07;8.13;;;23.40;47.70;;;;;;5056628;28;20808;-87
2022/04/18 04:56:03;;;;;;;11.17;8.30;;;23.50;47.70;;;;;;5055859;28;20437;-87
2022/04/18 04:58:29;;;;;;;10.70;9.60;;;23.40;47.60;;;;;;5059968;28;20456;-87
2022/04/18 05:00:58;;;;;;;10.10;8.37;;;23.40;47.60;;;;;;5059471;28;20430;-87
2022/04/18 05:03:33;;;;;;;9.23;8.27;;;23.40;47.60;;;;;;5056172;28;20504;-87
2022/04/18 05:06:00;;;;;;;8.87;7.90;;;23.40;47.60;;;;;;5056268;28;20433;-87
2022/04/18 05:08:27;;;;;;;9.80;8.63;;;23.40;47.60;;;;;;5056350;28;20500;-87
2022/04/18 05:10:55;;;;;;;12.60;9.50;;;23.40;47.60;;;;;;5056053;28;20446;-87
2022/04/18 05:13:22;;;;;;;9.43;8.43;;;23.40;47.70;;;;;;5038249;28;20444;-87
2022/04/18 05:15:49;;;;;;;12.27;9.17;;;23.40;47.70;;;;;;5056011;28;20495;-87
2022/04/18 05:18:17;;;;;;;9.20;8.30;;;23.40;47.70;;;;;;5055807;28;20440;-87
2022/04/18 05:20:46;;;;;;;9.50;8.57;;;23.40;47.60;;;;;;5055434;28;20446;-87
2022/04/18 05:23:16;;;;;;;10.43;9.00;;;23.40;47.50;;;;;;5055794;28;20883;-87
2022/04/18 05:25:43;;;;;;;11.47;9.33;;;23.40;47.70;;;;;;5055809;28;20440;-87
2022/04/18 05:28:10;;;;;;;8.77;7.87;;;23.40;47.60;;;;;;5037965;28;20493;-87
2022/04/18 05:30:37;;;;;;;9.23;8.10;;;23.40;47.70;;;;;;5037681;28;20441;-87
2022/04/18 05:33:04;;;;;;;9.50;8.60;;;23.40;47.70;;;;;;5055137;28;20866;-89
2022/04/18 05:35:32;;;;;;;9.30;8.37;;;23.30;47.80;;;;;;5054983;28;20450;-86
2022/04/18 05:37:59;;;;;;;10.37;9.30;;;23.30;47.70;;;;;;5055049;28;20462;-85
2022/04/18 05:40:26;;;;;;;9.30;8.40;;;23.20;47.80;;;;;;5055008;28;20458;-86
2022/04/18 05:42:53;;;;;;;11.27;9.37;;;23.20;47.90;;;;;;5056013;28;20457;-85
2022/04/18 05:45:19;;;;;;;8.63;7.73;;;23.20;48.20;;;;;;5055198;28;20449;-85
2022/04/18 05:47:46;;;;;;;8.90;8.00;;;23.20;48.20;;;;;;5054825;28;20485;-85
2022/04/18 05:50:14;;;;;;;9.73;8.03;;;23.30;48.10;;;;;;5054948;28;20438;-85
2022/04/18 05:52:42;;;;;;;8.67;7.77;;;23.30;48.10;;;;;;5054839;28;20450;-86
2022/04/18 05:55:09;;;;;;;9.73;8.43;;;23.30;48.20;;;;;;5054531;28;20932;-87
2022/04/18 05:57:36;;;;;;;10.50;8.20;;;23.30;48.10;;;;;;5054570;28;20473;-87
2022/04/18 06:00:05;;;;;;;10.33;8.67;;;23.20;48.40;;;;;;5037229;28;20445;-85
2022/04/18 06:02:32;;;;;;;9.50;8.07;;;23.20;48.30;;;;;;5054745;28;20441;-88
2022/04/18 06:04:59;;;;;;;16.23;12.60;;;23.20;48.20;;;;;;5054744;28;20442;-87
2022/04/18 06:07:25;;;;;;;18.80;16.83;;;23.20;46.20;;;;;;5054293;28;20486;-88
2022/04/18 06:09:53;;;;;;;22.47;18.27;;;23.10;45.00;;;;;;5054323;28;20462;-87
2022/04/18 06:12:21;;;;;;;19.70;16.23;;;22.90;44.00;;;;;;5054428;28;20441;-86
2022/04/18 06:14:47;;;;;;;20.63;14.67;;;22.70;44.20;;;;;;5054491;28;20519;-87
2022/04/18 06:17:14;;;;;;;19.40;13.53;;;22.70;45.10;;;;;;5053918;28;20438;-88
2022/04/18 06:19:41;;;;;;;15.93;12.23;;;22.70;45.60;;;;;;5053900;28;20438;-87
2022/04/18 06:22:08;;;;;;;29.10;13.20;;;22.80;46.30;;;;;;5054365;28;20442;-87
2022/04/18 06:24:34;;;;;;;16.53;12.47;;;22.80;46.80;;;;;;5054998;28;20434;-87
2022/04/18 06:27:02;;;;;;;13.73;11.20;;;22.80;47.20;;;;;;5054166;28;20449;-88
2022/04/18 06:29:29;;;;;;;14.47;10.93;;;22.80;47.20;;;;;;5054996;28;20434;-88
2022/04/18 06:31:56;;;;;;;15.17;11.50;;;22.90;47.70;;;;;;5054318;28;20450;-86
2022/04/18 06:34:25;;;;;;;26.27;16.63;;;22.90;47.70;;;;;;5054013;28;20441;-88
2022/04/18 06:36:52;;;;;;;23.83;17.50;;;22.90;45.60;;;;;;5053886;28;20452;-88
2022/04/18 06:39:18;;;;;;;21.30;16.43;;;22.90;44.30;;;;;;5054037;28;20473;-87
2022/04/18 06:41:45;;;;;;;19.23;15.30;;;22.80;44.70;;;;;;5054093;28;20434;-86
2022/04/18 06:44:13;;;;;;;19.80;13.87;;;22.80;45.00;;;;;;5054681;28;20445;-87
2022/04/18 06:46:40;;;;;;;21.00;14.80;;;22.80;45.90;;;;;;5054049;28;20446;-87
2022/04/18 06:49:07;;;;;;;16.60;12.83;;;22.80;46.50;;;;;;5053754;28;20489;-87
2022/04/18 06:51:34;;;;;;;14.77;13.17;;;22.90;46.40;;;;;;5053087;28;20430;-88
2022/04/18 06:54:00;;;;;;;20.00;13.07;;;23.00;46.90;;;;;;5053811;28;20524;-87
2022/04/18 06:59:13;;;;;;;14.57;11.97;;;22.90;47.90;;;;;;5053688;28;20429;-87
2022/04/18 07:01:40;;;;;;;16.23;11.77;;;23.00;47.50;;;;;;5053555;28;20438;-84
2022/04/18 07:04:07;;;;;;;14.43;11.20;;;23.00;47.40;;;;;;5053812;28;20446;-85
2022/04/18 07:06:34;;;;;;;18.80;12.70;;;23.10;47.50;;;;;;5053788;28;20484;-88
2022/04/18 07:09:01;;;;;;;14.03;11.43;;;23.10;46.20;;;;;;5053273;28;20489;-88
2022/04/18 07:11:27;;;;;;;13.30;11.90;;;23.10;46.40;;;;;;5053534;28;20434;-87
2022/04/18 07:13:54;;;;;;;14.27;10.93;;;23.10;46.70;;;;;;5053649;28;20440;-87
2022/04/18 07:16:22;;;;;;;14.23;10.77;;;23.10;47.10;;;;;;5053390;28;20913;-88
2022/04/18 07:18:49;;;;;;;12.10;10.80;;;23.10;47.30;;;;;;5053353;28;20440;-86
2022/04/18 07:21:16;;;;;;;13.30;10.47;;;23.20;47.50;;;;;;5053313;28;20437;-86
2022/04/18 07:23:42;;;;;;;13.10;10.90;;;23.20;47.80;;;;;;5053415;28;20437;-87
2022/04/18 07:26:09;;;;;;;11.50;9.93;;;23.20;46.00;;;;;;5053241;28;20438;-86
2022/04/18 07:28:38;;;;;;;10.43;9.17;;;23.20;44.50;;;;;;5053093;28;20489;-85
2022/04/18 07:31:05;;;;;;;12.00;8.83;;;23.10;43.50;;;;;;5053218;28;20445;-86
2022/04/18 07:33:34;;;;;;;10.90;8.63;;;23.10;43.10;;;;;;5053493;28;20543;-86
2022/04/18 07:36:02;;;;;;;11.03;8.27;;;23.00;43.50;;;;;;5053235;28;20473;-81
2022/04/18 07:41:14;;;;;;;7.13;6.37;;;23.00;43.60;;;;;;5053594;28;20948;-87
2022/04/18 07:43:41;;;;;;;9.53;6.50;;;22.90;43.60;;;;;;5053183;28;20438;-84
2022/04/18 07:46:07;;;;;;;8.07;6.60;;;22.90;44.50;;;;;;5050015;28;20435;-83
2022/04/18 07:48:36;;;;;;;10.00;6.53;;;22.90;44.40;;;;;;5052894;28;20847;-83
2022/04/18 07:53:47;;;;;;;9.40;6.37;;;22.90;46.40;;;;;;5053173;28;20425;-85
2022/04/18 07:56:14;;;;;;;5.93;5.30;;;22.90;46.40;;;;;;5052625;28;20445;-83
2022/04/18 07:58:41;;;;;;;8.90;5.90;;;22.90;46.30;;;;;;5052733;28;20441;-83
2022/04/18 08:01:08;;;;;;;7.37;5.90;;;23.00;46.40;;;;;;5052727;28;20471;-83
2022/04/18 08:03:36;;;;;;;7.83;5.77;;;23.00;46.40;;;;;;5055291;28;20437;-85
2022/04/18 08:06:03;;;;;;;7.13;6.43;;;22.90;46.80;;;;;;5056642;28;20453;-83
2022/04/18 08:08:30;;;;;;;6.67;6.00;;;23.00;47.00;;;;;;5056310;28;20485;-87
2022/04/18 08:10:58;;;;;;;5.70;4.93;;;23.00;47.10;;;;;;5056720;28;20437;-87
2022/04/18 08:13:25;;;;;;;8.40;5.27;;;23.00;46.30;;;;;;5056957;28;20442;-87
2022/04/18 08:15:52;;;;;;;5.93;5.00;;;23.00;46.90;;;;;;5056982;28;20445;-86
2022/04/18 08:18:19;;;;;;;6.07;5.00;;;23.10;46.90;;;;;;5022492;28;20503;-84
2022/04/18 08:20:48;;;;;;;5.70;4.97;;;23.10;46.90;;;;;;5056627;28;20509;-87
2022/04/18 08:23:14;;;;;;;4.90;4.40;;;23.10;47.00;;;;;;5056580;28;20437;-84
2022/04/18 08:25:41;;;;;;;4.73;4.10;;;23.10;47.00;;;;;;5056662;28;20433;-86
2022/04/18 08:28:09;;;;;;;5.20;4.70;;;23.10;46.90;;;;;;5056405;28;20488;-85
2022/04/18 08:30:36;;;;;;;5.00;4.50;;;23.10;46.90;;;;;;5056417;28;20802;-87
2022/04/18 08:33:03;;;;;;;5.63;4.53;;;23.20;47.00;;;;;;5056007;28;20442;-87
2022/04/18 08:35:32;;;;;;;4.80;4.40;;;23.20;46.90;;;;;;5056327;28;20472;-87
2022/04/18 08:38:00;;;;;;;4.53;4.13;;;23.20;46.90;;;;;;5056437;28;20487;-86
2022/04/18 08:40:27;;;;;;;6.33;4.60;;;23.20;46.70;;;;;;5056168;28;20895;-85
2022/04/18 08:42:55;;;;;;;5.00;4.50;;;23.20;46.60;;;;;;5056352;28;20438;-87
2022/04/18 08:45:24;;;;;;;4.40;4.00;;;23.40;46.60;;;;;;5056336;28;20515;-87
2022/04/18 08:53:28;;;;;;;5.80;4.50;;;23.30;46.30;;;;;;5056358;28;20397;-86
2022/04/18 08:55:55;;;;;;;4.03;3.67;;;23.40;46.40;;;;;;5055850;28;20426;-86
2022/04/18 08:58:23;;;;;;;4.50;3.80;;;23.30;46.40;;;;;;5056101;28;20434;-87
2022/04/18 09:00:50;;;;;;;3.80;3.50;;;23.40;46.40;;;;;;5055631;28;20445;-85
2022/04/18 09:03:16;;;;;;;4.90;3.87;;;23.40;46.20;;;;;;5055878;28;20465;-85
2022/04/18 09:05:43;;;;;;;3.23;2.93;;;23.40;46.50;;;;;;5055620;28;20446;-85
2022/04/18 09:08:11;;;;;;;3.23;2.97;;;23.40;46.40;;;;;;5055269;28;20489;-84
2022/04/18 09:10:40;;;;;;;3.77;3.43;;;23.40;46.50;;;;;;5055610;28;20442;-85
2022/04/18 09:13:09;;;;;;;4.17;3.40;;;23.40;46.40;;;;;;5054427;28;20442;-84
2022/04/18 09:15:38;;;;;;;3.73;3.40;;;23.40;46.40;;;;;;5054842;28;20438;-83
2022/04/18 09:18:10;;;;;;;4.97;3.20;;;23.40;46.50;;;;;;5055026;28;20508;-83
2022/04/18 09:20:44;;;;;;;4.03;3.53;;;23.40;46.50;;;;;;5054502;28;21027;-83
2022/04/18 09:23:25;;;;;;;4.10;3.47;;;23.50;46.60;;;;;;5054436;28;20440;-84
2022/04/18 09:25:56;;;;;;;3.63;3.33;;;23.50;46.50;;;;;;5055131;28;20453;-84
2022/04/18 09:28:28;;;;;;;3.37;3.03;;;23.50;45.80;;;;;;5055260;28;20500;-85
2022/04/18 09:30:59;;;;;;;4.57;3.10;;;23.50;46.00;;;;;;5055428;28;20440;-86
2022/04/18 09:33:30;;;;;;;4.37;3.30;;;23.50;46.30;;;;;;5055107;28;20438;-86
2022/04/18 09:36:13;;;;;;;3.67;3.37;;;23.50;46.40;;;;;;5055210;28;20442;-86
2022/04/18 09:38:43;;;;;;;5.90;2.90;;;23.70;46.90;;;;;;5054979;28;20462;-86
2022/04/18 09:41:14;;;;;;;6.10;2.83;;;23.60;47.00;;;;;;5054795;28;20438;-86
2022/04/18 09:43:43;;;;;;;3.10;2.90;;;23.60;47.00;;;;;;5054522;28;20921;-86
2022/04/18 09:46:12;;;;;;;4.97;3.13;;;23.70;47.20;;;;;;5054598;28;20446;-86
2022/04/18 09:48:39;;;;;;;3.00;2.80;;;23.70;47.20;;;;;;5054350;28;20572;-86
2022/04/18 09:51:12;;;;;;;5.10;3.70;;;23.70;47.30;;;;;;5055086;28;20469;-87
2022/04/18 09:53:41;;;;;;;3.03;2.20;;;23.90;47.40;;;;;;5055240;28;20438;-87
2022/04/18 09:56:08;;;;;;;3.87;3.17;;;23.90;47.50;;;;;;5054970;28;20442;-86
2022/04/18 09:58:37;;;;;;;4.37;2.87;;;24.00;47.60;;;;;;5054998;28;20438;-86
2022/04/18 10:01:05;;;;;;;4.40;2.80;;;24.00;47.60;;;;;;5054985;28;20437;-87
2022/04/18 10:03:33;;;;;;;5.17;2.80;;;24.10;47.70;;;;;;5054876;28;20496;-86
2022/04/18 10:06:01;;;;;;;3.70;2.80;;;24.10;47.70;;;;;;5055092;28;20442;-86
2022/04/18 10:08:29;;;;;;;3.20;2.90;;;24.20;47.80;;;;;;5054798;28;20462;-86
2022/04/18 10:10:58;;;;;;;3.33;2.47;;;24.20;48.40;;;;;;5054907;28;20454;-88
2022/04/18 10:13:26;;;;;;;2.63;2.43;;;24.30;47.90;;;;;;5056510;28;20453;-88
2022/04/18 10:15:55;;;;;;;4.13;2.80;;;24.30;47.90;;;;;;5054788;28;20442;-88
2022/04/18 10:18:24;;;;;;;3.30;2.90;;;24.40;48.00;;;;;;5054448;28;20442;-87
2022/04/18 10:21:10;;;;;;;3.10;2.80;;;24.50;48.10;;;;;;5054441;28;20492;-87
2022/04/18 10:23:57;;;;;;;2.60;2.20;;;24.50;48.70;;;;;;5037019;28;20441;-87
2022/04/18 10:27:00;;;;;;;3.30;3.00;;;24.50;48.20;;;;;;5053639;28;20433;-88
2022/04/18 10:29:31;;;;;;;3.97;2.77;;;24.60;48.30;;;;;;5053078;28;20539;-88
2022/04/18 10:32:03;;;;;;;2.53;2.40;;;24.60;48.40;;;;;;5020946;28;20777;-86
2022/04/18 10:34:34;;;;;;;2.90;2.70;;;24.60;48.40;;;;;;5054317;28;20808;-87
2022/04/18 10:37:03;;;;;;;3.30;3.00;;;24.70;48.50;;;;;;5054227;28;20446;-88
2022/04/18 10:39:34;;;;;;;2.80;2.17;;;24.70;48.50;;;;;;5054391;28;20454;-85
2022/04/18 10:42:19;;;;;;;3.10;2.90;;;24.80;48.60;;;;;;5054227;28;20444;-88
2022/04/18 10:44:58;;;;;;;2.93;2.63;;;24.80;48.60;;;;;;5054506;28;20442;-88
2022/04/18 10:47:27;;;;;;;3.93;2.37;;;24.80;49.10;;;;;;5054235;28;20434;-88
2022/04/18 10:50:18;;;;;;;3.53;2.50;;;24.80;48.70;;;;;;5054695;28;20846;-88
2022/04/18 10:53:20;;;;;;;2.40;2.10;;;24.90;48.70;;;;;;5053997;28;20540;-88
2022/04/18 10:56:12;;;;;;;3.00;2.70;;;25.00;48.70;;;;;;5048774;28;20456;-87
2022/04/18 10:58:43;;;;;;;2.57;2.37;;;25.10;48.70;;;;;;5054001;28;20509;-87
2022/04/18 11:01:10;;;;;;;2.90;2.70;;;25.00;48.70;;;;;;5053984;28;20477;-86
2022/04/18 11:04:00;;;;;;;3.80;2.30;;;25.10;48.70;;;;;;5054070;28;20482;-88
2022/04/18 11:06:46;;;;;;;3.03;2.10;;;25.20;48.70;;;;;;5047974;28;20482;-88
2022/04/18 11:09:15;;;;;;;2.27;2.07;;;25.20;48.70;;;;;;5053223;28;20484;-88
2022/04/18 11:11:47;;;;;;;2.60;2.40;;;25.20;48.70;;;;;;5036101;28;20825;-88
2022/04/18 11:14:21;;;;;;;2.67;2.40;;;25.30;48.80;;;;;;5054159;28;20430;-87
2022/04/18 11:16:58;;;;;;;4.20;2.90;;;25.40;49.40;;;;;;5036046;28;20847;-87
2022/04/18 11:19:28;;;;;;;2.50;2.30;;;25.40;48.80;;;;;;5053352;28;20452;-86
2022/04/18 11:22:08;;;;;;;2.77;2.27;;;25.40;48.80;;;;;;5053714;28;20446;-88
2022/04/18 11:24:41;;;;;;;2.13;1.80;;;25.50;48.90;;;;;;5036788;28;20458;-88
2022/04/18 11:27:10;;;;;;;2.17;1.97;;;25.40;48.80;;;;;;5053508;28;20448;-88
2022/04/18 11:29:38;;;;;;;2.00;1.80;;;25.50;48.80;;;;;;5053484;28;20481;-88
2022/04/18 11:32:06;;;;;;;2.50;2.30;;;25.50;48.90;;;;;;5053376;28;20445;-88
2022/04/18 11:34:36;;;;;;;2.10;2.00;;;25.50;48.80;;;;;;5053481;28;20475;-87
2022/04/18 11:37:08;;;;;;;2.40;2.20;;;25.60;48.80;;;;;;5055366;28;20433;-88
2022/04/18 11:39:46;;;;;;;3.07;2.43;;;25.60;48.80;;;;;;5057382;28;20470;-87
2022/04/18 11:42:16;;;;;;;2.50;2.30;;;25.60;48.80;;;;;;5057222;28;20448;-88
2022/04/18 11:44:45;;;;;;;1.93;1.83;;;25.60;48.90;;;;;;5057259;28;21047;-86
2022/04/18 11:47:13;;;;;;;2.00;1.80;;;25.60;49.00;;;;;;5057404;28;20449;-88
2022/04/18 11:49:44;;;;;;;2.60;2.40;;;25.60;49.00;;;;;;5056986;28;20492;-87
2022/04/18 11:52:18;;;;;;;2.37;2.27;;;25.60;49.00;;;;;;5057375;28;20481;-86
2022/04/18 11:55:11;;;;;;;2.03;1.73;;;25.60;49.00;;;;;;5057248;28;20425;-88
2022/04/18 11:57:39;;;;;;;2.67;2.13;;;25.70;48.90;;;;;;5037962;28;20576;-86
2022/04/18 12:00:08;;;;;;;2.27;2.07;;;25.60;49.00;;;;;;5057388;28;20446;-88
2022/04/18 12:08:08;;;;;;;2.23;2.03;;;25.70;49.10;;;;;;5057336;28;20440;-88
2022/04/18 12:10:36;;;;;;;1.87;1.67;;;25.70;49.10;;;;;;5056899;28;20480;-87
2022/04/18 12:13:06;;;;;;;2.37;2.03;;;25.70;49.00;;;;;;5057022;28;20928;-87
2022/04/18 12:15:34;;;;;;;2.60;2.40;;;25.70;49.10;;;;;;5056937;28;20442;-87
2022/04/18 12:18:08;;;;;;;2.13;2.03;;;25.70;49.00;;;;;;5056857;28;20977;-88
2022/04/18 12:20:41;;;;;;;2.50;2.30;;;25.70;49.00;;;;;;5057115;28;20425;-87
2022/04/18 12:23:09;;;;;;;2.10;1.90;;;25.70;49.10;;;;;;5056653;28;20434;-88
2022/04/18 12:25:35;;;;;;;2.03;1.83;;;25.70;49.10;;;;;;5057501;28;20430;-86
2022/04/18 12:28:06;;;;;;;1.90;1.80;;;25.70;49.10;;;;;;5058772;28;20438;-87
2022/04/18 12:30:32;;;;;;;2.07;1.87;;;25.70;49.10;;;;;;5062347;28;20489;-87
2022/04/18 12:33:12;;;;;;;1.90;1.53;;;25.70;49.10;;;;;;5057250;28;20446;-87
2022/04/18 12:35:42;;;;;;;2.03;1.80;;;25.80;49.00;;;;;;5056436;28;20430;-86
2022/04/18 12:38:10;;;;;;;2.27;1.97;;;25.80;49.10;;;;;;5056330;28;20544;-87
2022/04/18 12:40:39;;;;;;;2.10;1.90;;;25.70;49.10;;;;;;5056607;28;20473;-88
2022/04/18 12:43:11;;;;;;;1.93;1.83;;;25.70;49.10;;;;;;5056099;28;20956;-87
2022/04/18 12:45:52;;;;;;;1.70;1.60;;;25.80;49.20;;;;;;5056296;28;20445;-87
2022/04/18 12:48:23;;;;;;;1.63;1.53;;;25.80;49.20;;;;;;5055647;28;20421;-87
2022/04/18 12:50:52;;;;;;;1.70;1.60;;;25.70;49.70;;;;;;5057216;28;20489;-87
2022/04/18 12:53:20;;;;;;;1.93;1.60;;;25.70;49.10;;;;;;5055980;28;20818;-87
2022/04/18 12:55:48;;;;;;;1.70;1.60;;;25.70;49.20;;;;;;5038302;28;20441;-88
2022/04/18 12:58:17;;;;;;;1.60;1.50;;;25.80;49.20;;;;;;5055661;28;20805;-88
2022/04/18 13:00:50;;;;;;;1.90;1.80;;;25.70;49.20;;;;;;5056184;28;20775;-87
2022/04/18 13:03:18;;;;;;;1.93;1.50;;;25.70;49.20;;;;;;5055780;28;20441;-88
2022/04/18 13:05:46;;;;;;;1.80;1.70;;;25.70;49.30;;;;;;5056034;28;20454;-88
2022/04/18 13:08:16;;;;;;;2.00;1.80;;;25.70;49.30;;;;;;5055837;28;20465;-85
2022/04/18 13:10:45;;;;;;;2.00;1.87;;;25.70;49.30;;;;;;5055777;28;20489;-88
2022/04/18 13:13:14;;;;;;;1.53;1.43;;;25.70;49.50;;;;;;5055682;28;20449;-86
2022/04/18 13:15:42;;;;;;;1.90;1.80;;;25.70;49.40;;;;;;5055176;28;20533;-86
2022/04/18 13:18:11;;;;;;;2.10;1.90;;;25.70;49.40;;;;;;5055780;28;20445;-87
2022/04/18 13:20:40;;;;;;;2.43;1.33;;;25.60;49.30;;;;;;5055668;28;20881;-88
2022/04/18 13:23:07;;;;;;;1.93;1.83;;;25.60;49.40;;;;;;5055801;28;20441;-88